Kezdőlap
METAR-TAF:

METAR-TAF

Repülőterek :

Valladolid, Spanyolország

földrajzi szélesség: 41-43N, földrajzi hosszúság: 004-51W, magasság: 849 m

Jelenlegi meteorológiai megfigyelések

A jelentés 40 perccel ezelõtt készült, 10:00 UTC
Délnyugati szél 10 kt
Hőmérséklet 5°C
Páratartalom 93%
Légköri nyomás 1030 hPa
Látótávolság: 7000 m
Borult 200 lábon

METAR: LEVD 091000Z 23010KT 7000 OVC002 05/04 Q1030

Idő: 11:40 (10:40 UTC)

Előrejelzés

A jelentés 5 órával és 40 perccel ezelõtt készült, 05:00 UTC
Az előrejelzés 09-én 06 óra UTC és 10-én 06 óra UTC között érvényes
Nyugati szél 6 kt
Látótávolság: 1500 m
Borult 200 lábon
Párásság
Valószínűség 40% :
09-én 06 óra UTC és 09-én 10 óra UTC között ideiglenes
Látótávolság: 0100 m
100 lábon
köd

TAF: LEVD 090500Z 0906/1006 26006KT 1500 BR OVC002 TX09/0915Z TN00/1006Z PROB40 TEMPO 0906/0910 0100 FG VV001

Meteorológiai megfigyelések és előrejelzések több, mint 4000 repülőtéren (METAR és TAF jelentéseket).

A térképen piros és sárga pontok jelzik az elérhető meteorológiai állomásokat.

Mozgassa az egeret a pont fölött, hogy megjelenjen az állomás neve.

Azután kattintson az időjárási megfigyelések és előrejelzések megtekintéséhez.

A térkép megváltoztatása: kattintson a fekete keresztel jelölt zöld gombra ráközelítéshez, a vonallal jelölt zöld gombra távolításhoz, vagy a zöld nyilakra a szomszédos térképek eléréséhez.


METAR-TAF: